Time,TemperatureF,DewpointF,PressureIn,WindDirection,WindDirectionDegrees,WindSpeedMPH,WindSpeedGustMPH,Humidity,HourlyPrecipIn,Conditions,Clouds,dailyrainin,SoftwareType,DateUTC
2013-01-10 00:01:00,36.3,29.0,30.02,SW,225,2.0,14.0,74,0.00,,,0.02,weatherlink.com 1.10,2013-01-10 05:01:00,
2013-01-10 00:16:00,35.7,29.0,30.02,WNW,288,2.0,8.0,76,0.00,,,0.00,weatherlink.com 1.10,2013-01-10 05:16:00,
2013-01-10 00:46:00,35.3,29.0,30.03,WNW,284,5.0,12.0,79,0.00,,,0.00,weatherlink.com 1.10,2013-01-10 05:46:00,
2013-01-10 01:01:00,34.3,30.0,30.04,South,190,3.0,12.0,85,0.00,,,0.00,weatherlink.com 1.10,2013-01-10 06:01:00,
2013-01-10 01:16:00,33.6,31.0,30.05,WSW,252,8.0,16.0,89,0.00,,,0.00,weatherlink.com 1.10,2013-01-10 06:16:00,
2013-01-10 01:31:00,33.5,30.0,30.06,NW,304,6.0,22.0,88,0.00,,,0.00,weatherlink.com 1.10,2013-01-10 06:31:00,
2013-01-10 01:46:00,33.5,30.0,30.08,WNW,293,5.0,13.0,86,0.00,,,0.00,weatherlink.com 1.10,2013-01-10 06:46:00,
2013-01-10 02:01:00,33.7,29.0,30.09,WNW,301,3.0,14.0,84,0.00,,,0.00,weatherlink.com 1.10,2013-01-10 07:01:00,
2013-01-10 02:16:00,33.7,29.0,30.11,WNW,287,3.0,9.0,83,0.00,,,0.00,weatherlink.com 1.10,2013-01-10 07:16:00,
2013-01-10 02:31:00,33.7,28.0,30.11,WSW,242,4.0,22.0,80,0.00,,,0.00,weatherlink.com 1.10,2013-01-10 07:31:00,
2013-01-10 02:46:00,33.8,28.0,30.13,WSW,238,4.0,17.0,79,0.00,,,0.00,weatherlink.com 1.10,2013-01-10 07:46:00,
2013-01-10 03:01:00,34.0,27.0,30.14,WNW,295,8.0,14.0,76,0.00,,,0.00,weatherlink.com 1.10,2013-01-10 08:01:00,
2013-01-10 03:16:00,34.0,27.0,30.15,WSW,238,6.0,17.0,76,0.00,,,0.00,weatherlink.com 1.10,2013-01-10 08:16:00,
2013-01-10 03:31:00,33.6,27.0,30.16,WNW,288,5.0,17.0,77,0.00,,,0.00,weatherlink.com 1.10,2013-01-10 08:31:00,
2013-01-10 03:46:00,33.5,27.0,30.17,West,273,4.0,13.0,77,0.00,,,0.00,weatherlink.com 1.10,2013-01-10 08:46:00,
2013-01-10 04:01:00,33.4,27.0,30.19,SSW,210,6.0,15.0,78,0.00,,,0.00,weatherlink.com 1.10,2013-01-10 09:01:00,
2013-01-10 04:16:00,32.8,27.0,30.19,WNW,301,7.0,15.0,80,0.00,,,0.00,weatherlink.com 1.10,2013-01-10 09:16:00,
2013-01-10 04:31:00,32.6,27.0,30.20,WNW,288,6.0,19.0,79,0.00,,,0.00,weatherlink.com 1.10,2013-01-10 09:31:00,
2013-01-10 04:46:00,32.5,26.0,30.21,West,276,3.0,14.0,78,0.00,,,0.00,weatherlink.com 1.10,2013-01-10 09:46:00,
2013-01-10 05:02:00,32.5,26.0,30.22,WNW,285,3.0,16.0,76,0.00,,,0.00,weatherlink.com 1.10,2013-01-10 10:02:00,
2013-01-10 05:17:00,33.0,25.0,30.23,WSW,249,5.0,15.0,72,0.00,,,0.00,weatherlink.com 1.10,2013-01-10 10:17:00,
2013-01-10 05:33:00,33.1,24.0,30.24,WNW,287,2.0,15.0,69,0.00,,,0.00,weatherlink.com 1.10,2013-01-10 10:33:00,
2013-01-10 05:47:00,33.1,24.0,30.24,WNW,287,3.0,11.0,68,0.00,,,0.00,weatherlink.com 1.10,2013-01-10 10:47:00,
2013-01-10 06:02:00,33.0,23.0,30.25,WNW,285,5.0,6.0,67,0.00,,,0.00,weatherlink.com 1.10,2013-01-10 11:02:00,
2013-01-10 06:17:00,33.0,23.0,30.27,NW,316,4.0,13.0,66,0.00,,,0.00,weatherlink.com 1.10,2013-01-10 11:17:00,
2013-01-10 06:32:00,32.7,22.0,30.28,West,278,5.0,11.0,66,0.00,,,0.00,weatherlink.com 1.10,2013-01-10 11:32:00,
2013-01-10 06:47:00,32.3,22.0,30.28,WNW,298,6.0,12.0,67,0.00,,,0.00,weatherlink.com 1.10,2013-01-10 11:47:00,
2013-01-10 07:02:00,31.7,22.0,30.29,West,262,10.0,10.0,67,0.00,,,0.00,weatherlink.com 1.10,2013-01-10 12:02:00,
2013-01-10 07:17:00,31.5,22.0,30.31,WSW,257,1.0,10.0,68,0.00,,,0.00,weatherlink.com 1.10,2013-01-10 12:17:00,
2013-01-10 07:32:00,31.3,22.0,30.31,West,269,3.0,10.0,69,0.00,,,0.00,weatherlink.com 1.10,2013-01-10 12:32:00,
2013-01-10 07:47:00,31.6,22.0,30.32,West,269,4.0,14.0,68,0.00,,,0.00,weatherlink.com 1.10,2013-01-10 12:47:00,
2013-01-10 08:02:00,31.6,22.0,30.34,WNW,292,5.0,15.0,68,0.00,,,0.00,weatherlink.com 1.10,2013-01-10 13:02:00,
2013-01-10 08:17:00,31.9,22.0,30.34,West,264,8.0,18.0,67,0.00,,,0.00,weatherlink.com 1.10,2013-01-10 13:17:00,
2013-01-10 08:32:00,32.3,22.0,30.34,WSW,242,11.0,17.0,66,0.00,,,0.00,weatherlink.com 1.10,2013-01-10 13:32:00,
2013-01-10 08:47:00,32.7,22.0,30.34,WNW,292,6.0,18.0,66,0.00,,,0.00,weatherlink.com 1.10,2013-01-10 13:47:00,
2013-01-10 09:02:00,33.0,22.0,30.35,WSW,255,5.0,17.0,65,0.00,,,0.00,weatherlink.com 1.10,2013-01-10 14:02:00,
2013-01-10 09:17:00,33.5,23.0,30.35,WNW,290,6.0,19.0,65,0.00,,,0.00,weatherlink.com 1.10,2013-01-10 14:17:00,
2013-01-10 09:32:00,34.1,23.0,30.36,NNE,30,8.0,21.0,65,0.00,,,0.00,weatherlink.com 1.10,2013-01-10 14:32:00,
2013-01-10 09:47:00,34.0,23.0,30.36,SW,232,7.0,21.0,64,0.00,,,0.00,weatherlink.com 1.10,2013-01-10 14:47:00,
2013-01-10 10:02:00,34.0,23.0,30.36,WSW,250,2.0,18.0,64,0.00,,,0.00,weatherlink.com 1.10,2013-01-10 15:02:00,
2013-01-10 10:17:00,34.3,23.0,30.37,SE,134,7.0,20.0,64,0.00,,,0.00,weatherlink.com 1.10,2013-01-10 15:17:00,
2013-01-10 10:32:00,34.6,23.0,30.37,SW,215,25.0,25.0,63,0.00,,,0.00,weatherlink.com 1.10,2013-01-10 15:32:00,
2013-01-10 10:47:00,34.6,23.0,30.37,West,278,9.0,23.0,63,0.00,,,0.00,weatherlink.com 1.10,2013-01-10 15:47:00,
2013-01-10 11:02:00,34.7,24.0,30.37,NW,305,16.0,18.0,64,0.00,,,0.00,weatherlink.com 1.10,2013-01-10 16:02:00,
2013-01-10 11:17:00,35.0,23.0,30.36,NNE,26,9.0,18.0,63,0.00,,,0.00,weatherlink.com 1.10,2013-01-10 16:17:00,
2013-01-10 11:32:00,35.1,24.0,30.37,West,264,6.0,16.0,63,0.00,,,0.00,weatherlink.com 1.10,2013-01-10 16:32:00,
2013-01-10 11:47:00,35.3,24.0,30.37,NE,49,3.0,16.0,63,0.00,,,0.00,weatherlink.com 1.10,2013-01-10 16:47:00,
2013-01-10 12:02:00,35.3,23.0,30.37,West,269,13.0,15.0,62,0.00,,,0.00,weatherlink.com 1.10,2013-01-10 17:02:00,
2013-01-10 12:17:00,35.7,24.0,30.37,NW,313,6.0,15.0,62,0.00,,,0.00,weatherlink.com 1.10,2013-01-10 17:17:00,
2013-01-10 12:47:00,35.4,24.0,30.38,WNW,288,1.0,16.0,64,0.00,,,0.00,weatherlink.com 1.10,2013-01-10 17:47:00,
2013-01-10 13:03:00,35.8,25.0,30.38,West,276,11.0,18.0,64,0.00,,,0.00,weatherlink.com 1.10,2013-01-10 18:03:00,
2013-01-10 13:18:00,35.5,24.0,30.37,WNW,287,8.0,24.0,63,0.00,,,0.00,weatherlink.com 1.10,2013-01-10 18:18:00,
2013-01-10 13:33:00,35.6,24.0,30.39,WNW,290,5.0,21.0,62,0.00,,,0.00,weatherlink.com 1.10,2013-01-10 18:33:00,
2013-01-10 13:48:00,35.5,24.0,30.40,NNE,24,3.0,17.0,62,0.00,,,0.00,weatherlink.com 1.10,2013-01-10 18:48:00,
2013-01-10 14:03:00,35.7,24.0,30.41,WNW,295,4.0,13.0,62,0.00,,,0.00,weatherlink.com 1.10,2013-01-10 19:03:00,
2013-01-10 14:18:00,35.6,24.0,30.42,NNW,336,11.0,16.0,62,0.00,,,0.00,weatherlink.com 1.10,2013-01-10 19:18:00,
2013-01-10 14:34:00,35.5,24.0,30.41,WNW,301,6.0,17.0,63,0.00,,,0.00,weatherlink.com 1.10,2013-01-10 19:34:00,
2013-01-10 14:48:00,35.5,24.0,30.41,WNW,301,6.0,15.0,63,0.00,,,0.00,weatherlink.com 1.10,2013-01-10 19:48:00,
2013-01-10 15:18:00,35.3,24.0,30.41,West,269,3.0,14.0,64,0.00,,,0.00,weatherlink.com 1.10,2013-01-10 20:18:00,
2013-01-10 15:33:00,34.9,24.0,30.43,WSW,255,10.0,23.0,64,0.00,,,0.00,weatherlink.com 1.10,2013-01-10 20:33:00,
2013-01-10 15:48:00,34.6,23.0,30.43,WNW,294,12.0,17.0,64,0.00,,,0.00,weatherlink.com 1.10,2013-01-10 20:48:00,
2013-01-10 16:03:00,34.2,23.0,30.43,West,279,4.0,16.0,65,0.00,,,0.00,weatherlink.com 1.10,2013-01-10 21:03:00,
2013-01-10 16:18:00,33.5,24.0,30.45,SSW,199,4.0,17.0,67,0.00,,,0.00,weatherlink.com 1.10,2013-01-10 21:18:00,
2013-01-10 16:33:00,33.0,23.0,30.46,WSW,242,8.0,16.0,68,0.00,,,0.00,weatherlink.com 1.10,2013-01-10 21:33:00,
2013-01-10 16:48:00,32.8,24.0,30.46,NW,319,11.0,16.0,69,0.00,,,0.00,weatherlink.com 1.10,2013-01-10 21:48:00,
2013-01-10 17:03:00,32.4,24.0,30.47,WNW,301,5.0,15.0,70,0.00,,,0.00,weatherlink.com 1.10,2013-01-10 22:03:00,
2013-01-10 17:18:00,32.0,23.0,30.47,West,281,8.0,18.0,70,0.00,,,0.00,weatherlink.com 1.10,2013-01-10 22:18:00,
2013-01-10 17:33:00,31.5,23.0,30.48,West,281,7.0,11.0,71,0.00,,,0.00,weatherlink.com 1.10,2013-01-10 22:33:00,
2013-01-10 17:48:00,31.2,23.0,30.48,NW,312,3.0,18.0,73,0.00,,,0.00,weatherlink.com 1.10,2013-01-10 22:48:00,
2013-01-10 18:03:00,30.8,23.0,30.48,WNW,301,4.0,16.0,73,0.00,,,0.00,weatherlink.com 1.10,2013-01-10 23:03:00,
2013-01-10 18:18:00,30.5,23.0,30.49,SSW,208,5.0,12.0,74,0.00,,,0.00,weatherlink.com 1.10,2013-01-10 23:18:00,
2013-01-10 18:33:00,30.4,23.0,30.48,WNW,298,7.0,12.0,74,0.00,,,0.00,weatherlink.com 1.10,2013-01-10 23:33:00,
2013-01-10 18:48:00,30.3,23.0,30.49,NW,307,4.0,15.0,73,0.00,,,0.00,weatherlink.com 1.10,2013-01-10 23:48:00,
2013-01-10 19:03:00,30.2,23.0,30.50,WSW,239,7.0,17.0,73,0.00,,,0.00,weatherlink.com 1.10,2013-01-11 00:03:00,
2013-01-10 19:18:00,30.0,22.0,30.50,NW,316,2.0,13.0,73,0.00,,,0.00,weatherlink.com 1.10,2013-01-11 00:18:00,
2013-01-10 19:33:00,29.6,23.0,30.50,WNW,288,4.0,10.0,75,0.00,,,0.00,weatherlink.com 1.10,2013-01-11 00:33:00,
2013-01-10 19:48:00,29.3,23.0,30.52,WNW,297,6.0,8.0,76,0.00,,,0.00,weatherlink.com 1.10,2013-01-11 00:48:00,
2013-01-10 20:03:00,29.0,22.0,30.51,WSW,246,5.0,11.0,76,0.00,,,0.00,weatherlink.com 1.10,2013-01-11 01:03:00,
2013-01-10 20:18:00,28.8,22.0,30.52,WNW,302,6.0,9.0,77,0.00,,,0.00,weatherlink.com 1.10,2013-01-11 01:18:00,
2013-01-10 20:33:00,28.5,22.0,30.53,West,281,2.0,9.0,78,0.00,,,0.00,weatherlink.com 1.10,2013-01-11 01:33:00,
2013-01-10 20:48:00,28.4,22.0,30.53,West,271,3.0,11.0,78,0.00,,,0.00,weatherlink.com 1.10,2013-01-11 01:48:00,
2013-01-10 21:03:00,28.2,22.0,30.53,West,271,7.0,11.0,79,0.00,,,0.00,weatherlink.com 1.10,2013-01-11 02:03:00,
2013-01-10 21:18:00,28.1,22.0,30.53,West,267,4.0,11.0,79,0.00,,,0.00,weatherlink.com 1.10,2013-01-11 02:18:00,
2013-01-10 21:33:00,27.9,23.0,30.54,WNW,284,5.0,7.0,80,0.00,,,0.00,weatherlink.com 1.10,2013-01-11 02:33:00,
2013-01-10 21:49:00,27.8,22.0,30.54,WNW,295,3.0,9.0,80,0.00,,,0.00,weatherlink.com 1.10,2013-01-11 02:49:00,
2013-01-10 22:04:00,27.6,23.0,30.55,West,265,4.0,8.0,81,0.00,,,0.00,weatherlink.com 1.10,2013-01-11 03:04:00,
2013-01-10 22:19:00,27.6,23.0,30.55,WNW,286,3.0,10.0,81,0.00,,,0.00,weatherlink.com 1.10,2013-01-11 03:19:00,
2013-01-10 22:34:00,27.5,22.0,30.55,WNW,285,4.0,8.0,81,0.00,,,0.00,weatherlink.com 1.10,2013-01-11 03:34:00,
2013-01-10 22:49:00,27.4,23.0,30.55,NNW,335,3.0,8.0,82,0.00,,,0.00,weatherlink.com 1.10,2013-01-11 03:49:00,
2013-01-10 23:04:00,27.1,22.0,30.54,West,281,1.0,10.0,82,0.00,,,0.00,weatherlink.com 1.10,2013-01-11 04:04:00,
2013-01-10 23:19:00,27.1,22.0,30.55,WNW,300,1.0,7.0,82,0.00,,,0.00,weatherlink.com 1.10,2013-01-11 04:19:00,
2013-01-10 23:34:00,27.1,22.0,30.54,NW,315,4.0,6.0,82,0.00,,,0.00,weatherlink.com 1.10,2013-01-11 04:34:00,
2013-01-10 23:49:00,27.0,23.0,30.54,WNW,299,6.0,7.0,83,0.00,,,0.00,weatherlink.com 1.10,2013-01-11 04:49:00,